sensor_id;sensor_type;location;lat;lon;timestamp;temperature;humidity
17565;DHT22;62994;52.126;5.596;2023-12-07T00:01:14;3.70;99.90
17565;DHT22;62994;52.126;5.596;2023-12-07T00:03:41;3.70;99.90
17565;DHT22;62994;52.126;5.596;2023-12-07T00:06:10;3.70;99.90
17565;DHT22;62994;52.126;5.596;2023-12-07T00:08:40;3.60;99.90
17565;DHT22;62994;52.126;5.596;2023-12-07T00:11:07;3.60;99.90
17565;DHT22;62994;52.126;5.596;2023-12-07T00:13:36;3.60;99.90
17565;DHT22;62994;52.126;5.596;2023-12-07T00:16:05;3.60;99.90
17565;DHT22;62994;52.126;5.596;2023-12-07T00:18:34;3.60;99.90
17565;DHT22;62994;52.126;5.596;2023-12-07T00:21:01;3.60;99.90
17565;DHT22;62994;52.126;5.596;2023-12-07T00:23:30;3.60;99.90
17565;DHT22;62994;52.126;5.596;2023-12-07T00:25:59;3.50;99.90
17565;DHT22;62994;52.126;5.596;2023-12-07T00:28:28;3.50;99.90
17565;DHT22;62994;52.126;5.596;2023-12-07T00:30:56;3.50;99.90
17565;DHT22;62994;52.126;5.596;2023-12-07T00:33:23;3.50;99.90
17565;DHT22;62994;52.126;5.596;2023-12-07T00:35:52;3.50;99.90
17565;DHT22;62994;52.126;5.596;2023-12-07T00:38:24;3.40;99.90
17565;DHT22;62994;52.126;5.596;2023-12-07T00:40:52;3.40;99.90
17565;DHT22;62994;52.126;5.596;2023-12-07T00:43:24;3.40;99.90
17565;DHT22;62994;52.126;5.596;2023-12-07T00:45:51;3.40;99.90
17565;DHT22;62994;52.126;5.596;2023-12-07T00:48:23;3.40;99.90
17565;DHT22;62994;52.126;5.596;2023-12-07T00:50:50;3.30;99.90
17565;DHT22;62994;52.126;5.596;2023-12-07T00:53:22;3.30;99.90
17565;DHT22;62994;52.126;5.596;2023-12-07T00:55:50;3.30;99.90
17565;DHT22;62994;52.126;5.596;2023-12-07T00:58:18;3.30;99.90
17565;DHT22;62994;52.126;5.596;2023-12-07T01:00:45;3.30;99.90
17565;DHT22;62994;52.126;5.596;2023-12-07T01:03:15;3.30;99.90
17565;DHT22;62994;52.126;5.596;2023-12-07T01:05:42;3.20;99.90
17565;DHT22;62994;52.126;5.596;2023-12-07T01:08:19;3.20;99.90
17565;DHT22;62994;52.126;5.596;2023-12-07T01:10:51;3.20;99.90
17565;DHT22;62994;52.126;5.596;2023-12-07T01:13:19;3.20;99.90
17565;DHT22;62994;52.126;5.596;2023-12-07T01:15:49;3.20;99.90
17565;DHT22;62994;52.126;5.596;2023-12-07T01:18:20;3.10;99.90
17565;DHT22;62994;52.126;5.596;2023-12-07T01:20:53;3.10;99.90
17565;DHT22;62994;52.126;5.596;2023-12-07T01:23:28;3.10;99.90
17565;DHT22;62994;52.126;5.596;2023-12-07T01:26:18;3.10;99.90
17565;DHT22;62994;52.126;5.596;2023-12-07T01:29:08;3.00;99.90
17565;DHT22;62994;52.126;5.596;2023-12-07T01:31:36;3.00;99.90
17565;DHT22;62994;52.126;5.596;2023-12-07T01:34:05;3.00;99.90
17565;DHT22;62994;52.126;5.596;2023-12-07T01:36:51;3.00;99.90
17565;DHT22;62994;52.126;5.596;2023-12-07T01:39:18;2.90;99.90
17565;DHT22;62994;52.126;5.596;2023-12-07T01:44:25;2.90;99.90
17565;DHT22;62994;52.126;5.596;2023-12-07T01:46:53;2.90;99.90
17565;DHT22;62994;52.126;5.596;2023-12-07T01:49:21;2.90;99.90
17565;DHT22;62994;52.126;5.596;2023-12-07T01:51:48;2.90;99.90
17565;DHT22;62994;52.126;5.596;2023-12-07T01:54:19;2.90;99.90
17565;DHT22;62994;52.126;5.596;2023-12-07T01:56:51;2.80;99.90
17565;DHT22;62994;52.126;5.596;2023-12-07T01:59:18;2.80;99.90
17565;DHT22;62994;52.126;5.596;2023-12-07T02:01:47;2.80;99.90
17565;DHT22;62994;52.126;5.596;2023-12-07T02:04:14;2.80;99.90
17565;DHT22;62994;52.126;5.596;2023-12-07T02:06:41;2.80;99.90
17565;DHT22;62994;52.126;5.596;2023-12-07T02:09:09;2.70;99.90
17565;DHT22;62994;52.126;5.596;2023-12-07T02:11:36;2.70;99.90
17565;DHT22;62994;52.126;5.596;2023-12-07T02:14:03;2.70;99.90
17565;DHT22;62994;52.126;5.596;2023-12-07T02:16:36;2.70;99.90
17565;DHT22;62994;52.126;5.596;2023-12-07T02:19:18;2.70;99.90
17565;DHT22;62994;52.126;5.596;2023-12-07T02:21:55;2.70;99.90
17565;DHT22;62994;52.126;5.596;2023-12-07T02:24:25;2.70;99.90
17565;DHT22;62994;52.126;5.596;2023-12-07T02:26:55;2.60;99.90
17565;DHT22;62994;52.126;5.596;2023-12-07T02:29:22;2.60;99.90
17565;DHT22;62994;52.126;5.596;2023-12-07T02:31:53;2.60;99.90
17565;DHT22;62994;52.126;5.596;2023-12-07T02:34:20;2.60;99.90
17565;DHT22;62994;52.126;5.596;2023-12-07T02:36:49;2.60;99.90
17565;DHT22;62994;52.126;5.596;2023-12-07T02:39:20;2.60;99.90
17565;DHT22;62994;52.126;5.596;2023-12-07T02:41:49;2.50;99.90
17565;DHT22;62994;52.126;5.596;2023-12-07T02:44:18;2.50;99.90
17565;DHT22;62994;52.126;5.596;2023-12-07T02:46:51;2.50;99.90
17565;DHT22;62994;52.126;5.596;2023-12-07T02:49:21;2.50;99.90
17565;DHT22;62994;52.126;5.596;2023-12-07T02:51:48;2.50;99.90
17565;DHT22;62994;52.126;5.596;2023-12-07T02:54:15;2.50;99.90
17565;DHT22;62994;52.126;5.596;2023-12-07T02:56:42;2.50;99.90
17565;DHT22;62994;52.126;5.596;2023-12-07T02:59:12;2.50;99.90
17565;DHT22;62994;52.126;5.596;2023-12-07T03:01:40;2.50;99.90
17565;DHT22;62994;52.126;5.596;2023-12-07T03:04:12;2.40;99.90
17565;DHT22;62994;52.126;5.596;2023-12-07T03:06:39;2.40;99.90
17565;DHT22;62994;52.126;5.596;2023-12-07T03:09:08;2.40;99.90
17565;DHT22;62994;52.126;5.596;2023-12-07T03:11:35;2.40;99.90
17565;DHT22;62994;52.126;5.596;2023-12-07T03:14:03;2.30;99.90
17565;DHT22;62994;52.126;5.596;2023-12-07T03:16:30;2.30;99.90
17565;DHT22;62994;52.126;5.596;2023-12-07T03:19:00;2.40;99.90
17565;DHT22;62994;52.126;5.596;2023-12-07T03:21:27;2.30;99.90
17565;DHT22;62994;52.126;5.596;2023-12-07T03:23:54;2.30;99.90
17565;DHT22;62994;52.126;5.596;2023-12-07T03:26:21;2.30;99.90
17565;DHT22;62994;52.126;5.596;2023-12-07T03:28:48;2.30;99.90
17565;DHT22;62994;52.126;5.596;2023-12-07T03:31:15;2.30;99.90
17565;DHT22;62994;52.126;5.596;2023-12-07T03:33:42;2.30;99.90
17565;DHT22;62994;52.126;5.596;2023-12-07T03:36:14;2.30;99.90
17565;DHT22;62994;52.126;5.596;2023-12-07T03:38:42;2.30;99.90
17565;DHT22;62994;52.126;5.596;2023-12-07T03:41:11;2.30;99.90
17565;DHT22;62994;52.126;5.596;2023-12-07T03:43:41;2.30;99.90
17565;DHT22;62994;52.126;5.596;2023-12-07T03:46:08;2.30;99.90
17565;DHT22;62994;52.126;5.596;2023-12-07T03:48:35;2.30;99.90
17565;DHT22;62994;52.126;5.596;2023-12-07T03:51:04;2.30;99.90
17565;DHT22;62994;52.126;5.596;2023-12-07T03:53:39;2.30;99.90
17565;DHT22;62994;52.126;5.596;2023-12-07T03:56:06;2.20;99.90
17565;DHT22;62994;52.126;5.596;2023-12-07T03:58:33;2.20;99.90
17565;DHT22;62994;52.126;5.596;2023-12-07T04:01:02;2.20;99.90
17565;DHT22;62994;52.126;5.596;2023-12-07T04:03:29;2.20;99.90
17565;DHT22;62994;52.126;5.596;2023-12-07T04:05:55;2.40;99.90
17565;DHT22;62994;52.126;5.596;2023-12-07T04:08:22;2.40;99.90
17565;DHT22;62994;52.126;5.596;2023-12-07T04:10:52;2.30;99.90
17565;DHT22;62994;52.126;5.596;2023-12-07T04:13:19;2.30;99.90
17565;DHT22;62994;52.126;5.596;2023-12-07T04:15:46;2.30;99.90
17565;DHT22;62994;52.126;5.596;2023-12-07T04:18:13;2.30;99.90
17565;DHT22;62994;52.126;5.596;2023-12-07T04:20:40;2.20;99.90
17565;DHT22;62994;52.126;5.596;2023-12-07T04:23:07;2.20;99.90
17565;DHT22;62994;52.126;5.596;2023-12-07T04:25:38;2.20;99.90
17565;DHT22;62994;52.126;5.596;2023-12-07T04:28:07;2.20;99.90
17565;DHT22;62994;52.126;5.596;2023-12-07T04:30:38;2.20;99.90
17565;DHT22;62994;52.126;5.596;2023-12-07T04:33:05;2.20;99.90
17565;DHT22;62994;52.126;5.596;2023-12-07T04:35:38;2.20;99.90
17565;DHT22;62994;52.126;5.596;2023-12-07T04:38:10;2.20;99.90
17565;DHT22;62994;52.126;5.596;2023-12-07T04:40:37;2.10;99.90
17565;DHT22;62994;52.126;5.596;2023-12-07T04:43:04;2.20;99.90
17565;DHT22;62994;52.126;5.596;2023-12-07T04:45:37;2.10;99.90
17565;DHT22;62994;52.126;5.596;2023-12-07T04:48:04;2.10;99.90
17565;DHT22;62994;52.126;5.596;2023-12-07T04:50:31;2.10;99.90
17565;DHT22;62994;52.126;5.596;2023-12-07T04:52:58;2.10;99.90
17565;DHT22;62994;52.126;5.596;2023-12-07T04:55:25;2.10;99.90
17565;DHT22;62994;52.126;5.596;2023-12-07T04:57:54;2.10;99.90
17565;DHT22;62994;52.126;5.596;2023-12-07T05:00:21;2.10;99.90
17565;DHT22;62994;52.126;5.596;2023-12-07T05:02:50;2.10;99.90
17565;DHT22;62994;52.126;5.596;2023-12-07T05:05:20;2.10;99.90
17565;DHT22;62994;52.126;5.596;2023-12-07T05:07:47;2.10;99.90
17565;DHT22;62994;52.126;5.596;2023-12-07T05:10:14;2.10;99.90
17565;DHT22;62994;52.126;5.596;2023-12-07T05:12:41;2.00;99.90
17565;DHT22;62994;52.126;5.596;2023-12-07T05:15:09;2.00;99.90
17565;DHT22;62994;52.126;5.596;2023-12-07T05:17:40;2.10;99.90
17565;DHT22;62994;52.126;5.596;2023-12-07T05:20:09;2.10;99.90
17565;DHT22;62994;52.126;5.596;2023-12-07T05:22:38;2.10;99.90
17565;DHT22;62994;52.126;5.596;2023-12-07T05:25:05;2.10;99.90
17565;DHT22;62994;52.126;5.596;2023-12-07T05:27:32;2.10;99.90
17565;DHT22;62994;52.126;5.596;2023-12-07T05:30:00;2.00;99.90
17565;DHT22;62994;52.126;5.596;2023-12-07T05:32:28;2.00;99.90
17565;DHT22;62994;52.126;5.596;2023-12-07T05:34:55;2.00;99.90
17565;DHT22;62994;52.126;5.596;2023-12-07T05:37:24;2.00;99.90
17565;DHT22;62994;52.126;5.596;2023-12-07T05:39:51;2.00;99.90
17565;DHT22;62994;52.126;5.596;2023-12-07T05:42:26;2.00;99.90
17565;DHT22;62994;52.126;5.596;2023-12-07T05:44:53;2.00;99.90
17565;DHT22;62994;52.126;5.596;2023-12-07T05:47:25;2.00;99.90
17565;DHT22;62994;52.126;5.596;2023-12-07T05:49:57;2.00;99.90
17565;DHT22;62994;52.126;5.596;2023-12-07T05:52:27;2.00;99.90
17565;DHT22;62994;52.126;5.596;2023-12-07T05:54:53;2.00;99.90
17565;DHT22;62994;52.126;5.596;2023-12-07T05:57:21;2.00;99.90
17565;DHT22;62994;52.126;5.596;2023-12-07T05:59:49;2.00;99.90
17565;DHT22;62994;52.126;5.596;2023-12-07T06:02:19;2.00;99.90
17565;DHT22;62994;52.126;5.596;2023-12-07T06:04:46;1.90;99.90
17565;DHT22;62994;52.126;5.596;2023-12-07T06:07:13;1.90;99.90
17565;DHT22;62994;52.126;5.596;2023-12-07T06:09:41;1.90;99.90
17565;DHT22;62994;52.126;5.596;2023-12-07T06:12:08;1.90;99.90
17565;DHT22;62994;52.126;5.596;2023-12-07T06:14:35;2.00;99.90
17565;DHT22;62994;52.126;5.596;2023-12-07T06:17:02;1.90;99.90
17565;DHT22;62994;52.126;5.596;2023-12-07T06:19:29;2.00;99.90
17565;DHT22;62994;52.126;5.596;2023-12-07T06:21:57;2.00;99.90
17565;DHT22;62994;52.126;5.596;2023-12-07T06:24:24;2.00;99.90
17565;DHT22;62994;52.126;5.596;2023-12-07T06:26:52;2.00;99.90
17565;DHT22;62994;52.126;5.596;2023-12-07T06:29:19;2.00;99.90
17565;DHT22;62994;52.126;5.596;2023-12-07T06:31:51;2.00;99.90
17565;DHT22;62994;52.126;5.596;2023-12-07T06:34:18;2.00;99.90
17565;DHT22;62994;52.126;5.596;2023-12-07T06:36:45;2.00;99.90
17565;DHT22;62994;52.126;5.596;2023-12-07T06:39:13;2.00;99.90
17565;DHT22;62994;52.126;5.596;2023-12-07T06:41:40;2.00;99.90
17565;DHT22;62994;52.126;5.596;2023-12-07T06:44:08;2.00;99.90
17565;DHT22;62994;52.126;5.596;2023-12-07T06:46:35;2.00;99.90
17565;DHT22;62994;52.126;5.596;2023-12-07T06:49:02;2.00;99.90
17565;DHT22;62994;52.126;5.596;2023-12-07T06:51:29;2.00;99.90
17565;DHT22;62994;52.126;5.596;2023-12-07T06:53:56;2.00;99.90
17565;DHT22;62994;52.126;5.596;2023-12-07T06:56:23;2.00;99.90
17565;DHT22;62994;52.126;5.596;2023-12-07T06:58:50;2.00;99.90
17565;DHT22;62994;52.126;5.596;2023-12-07T07:01:19;2.00;99.90
17565;DHT22;62994;52.126;5.596;2023-12-07T07:03:46;1.90;99.90
17565;DHT22;62994;52.126;5.596;2023-12-07T07:06:13;1.90;99.90
17565;DHT22;62994;52.126;5.596;2023-12-07T07:08:42;2.00;99.90
17565;DHT22;62994;52.126;5.596;2023-12-07T07:11:12;1.90;99.90
17565;DHT22;62994;52.126;5.596;2023-12-07T07:13:40;1.90;99.90
17565;DHT22;62994;52.126;5.596;2023-12-07T07:16:08;1.90;99.90
17565;DHT22;62994;52.126;5.596;2023-12-07T07:18:37;1.90;99.90
17565;DHT22;62994;52.126;5.596;2023-12-07T07:21:04;1.90;99.90
17565;DHT22;62994;52.126;5.596;2023-12-07T07:23:32;1.90;99.90
17565;DHT22;62994;52.126;5.596;2023-12-07T07:26:03;2.00;99.90
17565;DHT22;62994;52.126;5.596;2023-12-07T07:28:30;2.00;99.90
17565;DHT22;62994;52.126;5.596;2023-12-07T07:30:57;2.00;99.90
17565;DHT22;62994;52.126;5.596;2023-12-07T07:33:25;2.00;99.90
17565;DHT22;62994;52.126;5.596;2023-12-07T07:35:54;2.00;99.90
17565;DHT22;62994;52.126;5.596;2023-12-07T07:38:21;2.10;99.90
17565;DHT22;62994;52.126;5.596;2023-12-07T07:40:48;2.00;99.90
17565;DHT22;62994;52.126;5.596;2023-12-07T07:43:15;2.00;99.90
17565;DHT22;62994;52.126;5.596;2023-12-07T07:45:43;2.00;99.90
17565;DHT22;62994;52.126;5.596;2023-12-07T07:48:11;2.00;99.90
17565;DHT22;62994;52.126;5.596;2023-12-07T07:50:38;2.00;99.90
17565;DHT22;62994;52.126;5.596;2023-12-07T07:53:07;2.00;99.90
17565;DHT22;62994;52.126;5.596;2023-12-07T07:55:34;2.00;99.90
17565;DHT22;62994;52.126;5.596;2023-12-07T07:58:06;1.90;99.90
17565;DHT22;62994;52.126;5.596;2023-12-07T08:00:33;1.90;99.90
17565;DHT22;62994;52.126;5.596;2023-12-07T08:03:02;1.80;99.90
17565;DHT22;62994;52.126;5.596;2023-12-07T08:05:29;1.80;99.90
17565;DHT22;62994;52.126;5.596;2023-12-07T08:07:56;1.80;99.90
17565;DHT22;62994;52.126;5.596;2023-12-07T08:10:25;1.80;99.90
17565;DHT22;62994;52.126;5.596;2023-12-07T08:12:52;1.80;99.90
17565;DHT22;62994;52.126;5.596;2023-12-07T08:15:19;1.80;99.90
17565;DHT22;62994;52.126;5.596;2023-12-07T08:17:47;1.90;99.90
17565;DHT22;62994;52.126;5.596;2023-12-07T08:20:14;1.80;99.90
17565;DHT22;62994;52.126;5.596;2023-12-07T08:22:41;1.80;99.90
17565;DHT22;62994;52.126;5.596;2023-12-07T08:25:09;1.80;99.90
17565;DHT22;62994;52.126;5.596;2023-12-07T08:27:40;1.80;99.90
17565;DHT22;62994;52.126;5.596;2023-12-07T08:30:10;1.80;99.90
17565;DHT22;62994;52.126;5.596;2023-12-07T08:32:37;1.80;99.90
17565;DHT22;62994;52.126;5.596;2023-12-07T08:35:05;1.80;99.90
17565;DHT22;62994;52.126;5.596;2023-12-07T08:37:32;1.90;99.90
17565;DHT22;62994;52.126;5.596;2023-12-07T08:40:00;1.90;99.90
17565;DHT22;62994;52.126;5.596;2023-12-07T08:42:27;1.90;99.90
17565;DHT22;62994;52.126;5.596;2023-12-07T08:44:55;1.90;99.90
17565;DHT22;62994;52.126;5.596;2023-12-07T08:47:22;1.90;99.90
17565;DHT22;62994;52.126;5.596;2023-12-07T08:49:49;1.90;99.90
17565;DHT22;62994;52.126;5.596;2023-12-07T08:52:16;2.00;99.90
17565;DHT22;62994;52.126;5.596;2023-12-07T08:54:44;1.90;99.90
17565;DHT22;62994;52.126;5.596;2023-12-07T08:57:12;1.90;99.90
17565;DHT22;62994;52.126;5.596;2023-12-07T08:59:39;1.90;99.90
17565;DHT22;62994;52.126;5.596;2023-12-07T09:02:07;1.90;99.90
17565;DHT22;62994;52.126;5.596;2023-12-07T09:04:34;1.90;99.90
17565;DHT22;62994;52.126;5.596;2023-12-07T09:07:03;1.90;99.90
17565;DHT22;62994;52.126;5.596;2023-12-07T09:09:30;1.90;99.90
17565;DHT22;62994;52.126;5.596;2023-12-07T09:11:57;1.90;99.90
17565;DHT22;62994;52.126;5.596;2023-12-07T09:14:24;1.90;99.90
17565;DHT22;62994;52.126;5.596;2023-12-07T09:16:52;1.90;99.90
17565;DHT22;62994;52.126;5.596;2023-12-07T09:19:21;1.80;99.90
17565;DHT22;62994;52.126;5.596;2023-12-07T09:21:49;1.80;99.90
17565;DHT22;62994;52.126;5.596;2023-12-07T09:24:16;1.80;99.90
17565;DHT22;62994;52.126;5.596;2023-12-07T09:26:43;1.80;99.90
17565;DHT22;62994;52.126;5.596;2023-12-07T09:29:09;1.80;99.90
17565;DHT22;62994;52.126;5.596;2023-12-07T09:31:36;1.80;99.90
17565;DHT22;62994;52.126;5.596;2023-12-07T09:34:03;1.70;99.90
17565;DHT22;62994;52.126;5.596;2023-12-07T09:36:31;1.70;99.90
17565;DHT22;62994;52.126;5.596;2023-12-07T09:38:58;1.70;99.90
17565;DHT22;62994;52.126;5.596;2023-12-07T09:41:26;1.70;99.90
17565;DHT22;62994;52.126;5.596;2023-12-07T09:43:54;1.70;99.90
17565;DHT22;62994;52.126;5.596;2023-12-07T09:46:21;1.80;99.90
17565;DHT22;62994;52.126;5.596;2023-12-07T09:48:49;1.80;99.90
17565;DHT22;62994;52.126;5.596;2023-12-07T09:51:16;1.80;99.90
17565;DHT22;62994;52.126;5.596;2023-12-07T09:53:45;1.80;99.90
17565;DHT22;62994;52.126;5.596;2023-12-07T09:56:15;1.80;99.90
17565;DHT22;62994;52.126;5.596;2023-12-07T09:58:42;1.80;99.90
17565;DHT22;62994;52.126;5.596;2023-12-07T10:01:09;1.90;99.90
17565;DHT22;62994;52.126;5.596;2023-12-07T10:03:39;1.90;99.90
17565;DHT22;62994;52.126;5.596;2023-12-07T10:06:06;1.90;99.90
17565;DHT22;62994;52.126;5.596;2023-12-07T10:08:37;1.90;99.90
17565;DHT22;62994;52.126;5.596;2023-12-07T10:11:07;1.90;99.90
17565;DHT22;62994;52.126;5.596;2023-12-07T10:13:35;1.90;99.90
17565;DHT22;62994;52.126;5.596;2023-12-07T10:16:11;1.90;99.90
17565;DHT22;62994;52.126;5.596;2023-12-07T10:18:40;1.90;99.90
17565;DHT22;62994;52.126;5.596;2023-12-07T10:21:07;1.90;99.90
17565;DHT22;62994;52.126;5.596;2023-12-07T10:23:40;1.90;99.90
17565;DHT22;62994;52.126;5.596;2023-12-07T10:26:10;1.90;99.90
17565;DHT22;62994;52.126;5.596;2023-12-07T10:28:37;1.90;99.90
17565;DHT22;62994;52.126;5.596;2023-12-07T10:31:09;1.90;99.90
17565;DHT22;62994;52.126;5.596;2023-12-07T10:33:36;1.90;99.90
17565;DHT22;62994;52.126;5.596;2023-12-07T10:36:04;1.90;99.90
17565;DHT22;62994;52.126;5.596;2023-12-07T10:38:32;1.90;99.90
17565;DHT22;62994;52.126;5.596;2023-12-07T10:41:04;1.90;99.90
17565;DHT22;62994;52.126;5.596;2023-12-07T10:43:37;1.90;99.90
17565;DHT22;62994;52.126;5.596;2023-12-07T10:46:05;2.00;99.90
17565;DHT22;62994;52.126;5.596;2023-12-07T10:48:38;1.90;99.90
17565;DHT22;62994;52.126;5.596;2023-12-07T10:51:08;2.00;99.90
17565;DHT22;62994;52.126;5.596;2023-12-07T10:53:40;2.00;99.90
17565;DHT22;62994;52.126;5.596;2023-12-07T10:56:11;2.10;99.90
17565;DHT22;62994;52.126;5.596;2023-12-07T10:58:45;2.10;99.90
17565;DHT22;62994;52.126;5.596;2023-12-07T11:01:12;2.10;99.90
17565;DHT22;62994;52.126;5.596;2023-12-07T11:03:40;2.10;99.90
17565;DHT22;62994;52.126;5.596;2023-12-07T11:06:09;2.10;99.90
17565;DHT22;62994;52.126;5.596;2023-12-07T11:08:39;2.10;99.90
17565;DHT22;62994;52.126;5.596;2023-12-07T11:11:15;2.10;99.90
17565;DHT22;62994;52.126;5.596;2023-12-07T11:13:52;2.20;99.90
17565;DHT22;62994;52.126;5.596;2023-12-07T11:16:29;2.20;99.90
17565;DHT22;62994;52.126;5.596;2023-12-07T11:18:56;2.20;99.90
17565;DHT22;62994;52.126;5.596;2023-12-07T11:21:23;2.20;99.90
17565;DHT22;62994;52.126;5.596;2023-12-07T11:23:52;2.20;99.90
17565;DHT22;62994;52.126;5.596;2023-12-07T11:26:20;2.20;99.90
17565;DHT22;62994;52.126;5.596;2023-12-07T11:28:48;2.30;99.90
17565;DHT22;62994;52.126;5.596;2023-12-07T11:31:21;2.30;99.90
17565;DHT22;62994;52.126;5.596;2023-12-07T11:33:48;2.40;99.90
17565;DHT22;62994;52.126;5.596;2023-12-07T11:36:15;2.40;99.90
17565;DHT22;62994;52.126;5.596;2023-12-07T11:39:19;2.40;99.90
17565;DHT22;62994;52.126;5.596;2023-12-07T11:41:51;2.40;99.90
17565;DHT22;62994;52.126;5.596;2023-12-07T11:44:24;2.40;99.90
17565;DHT22;62994;52.126;5.596;2023-12-07T11:46:59;2.40;99.90
17565;DHT22;62994;52.126;5.596;2023-12-07T11:49:27;2.40;99.90
17565;DHT22;62994;52.126;5.596;2023-12-07T11:51:55;2.40;99.90
17565;DHT22;62994;52.126;5.596;2023-12-07T11:54:27;2.50;99.90
17565;DHT22;62994;52.126;5.596;2023-12-07T11:56:54;2.50;99.90
17565;DHT22;62994;52.126;5.596;2023-12-07T11:59:28;2.50;99.90
17565;DHT22;62994;52.126;5.596;2023-12-07T12:01:59;2.60;99.90
17565;DHT22;62994;52.126;5.596;2023-12-07T12:04:28;2.60;99.90
17565;DHT22;62994;52.126;5.596;2023-12-07T12:06:55;2.70;99.90
17565;DHT22;62994;52.126;5.596;2023-12-07T12:09:24;2.70;99.90
17565;DHT22;62994;52.126;5.596;2023-12-07T12:11:51;2.70;99.90
17565;DHT22;62994;52.126;5.596;2023-12-07T12:14:18;2.70;99.90
17565;DHT22;62994;52.126;5.596;2023-12-07T12:16:47;2.70;99.90
17565;DHT22;62994;52.126;5.596;2023-12-07T12:19:14;2.70;99.90
17565;DHT22;62994;52.126;5.596;2023-12-07T12:21:42;2.70;99.90
17565;DHT22;62994;52.126;5.596;2023-12-07T12:24:10;2.70;99.90
17565;DHT22;62994;52.126;5.596;2023-12-07T12:26:40;2.80;99.90
17565;DHT22;62994;52.126;5.596;2023-12-07T12:29:08;2.80;99.90
17565;DHT22;62994;52.126;5.596;2023-12-07T12:31:35;2.80;99.90
17565;DHT22;62994;52.126;5.596;2023-12-07T12:34:06;2.80;99.90
17565;DHT22;62994;52.126;5.596;2023-12-07T12:36:34;2.90;99.90
17565;DHT22;62994;52.126;5.596;2023-12-07T12:39:01;2.90;99.90
17565;DHT22;62994;52.126;5.596;2023-12-07T12:41:29;2.90;99.90
17565;DHT22;62994;52.126;5.596;2023-12-07T12:43:56;3.00;99.90
17565;DHT22;62994;52.126;5.596;2023-12-07T12:46:25;3.00;99.90
17565;DHT22;62994;52.126;5.596;2023-12-07T12:48:53;3.10;99.90
17565;DHT22;62994;52.126;5.596;2023-12-07T12:51:24;3.20;99.90
17565;DHT22;62994;52.126;5.596;2023-12-07T12:53:51;3.20;99.90
17565;DHT22;62994;52.126;5.596;2023-12-07T12:56:19;3.20;99.90
17565;DHT22;62994;52.126;5.596;2023-12-07T12:58:47;3.20;99.90
17565;DHT22;62994;52.126;5.596;2023-12-07T13:01:15;3.20;99.90
17565;DHT22;62994;52.126;5.596;2023-12-07T13:03:43;3.20;99.90
17565;DHT22;62994;52.126;5.596;2023-12-07T13:06:11;3.20;99.90
17565;DHT22;62994;52.126;5.596;2023-12-07T13:08:41;3.20;99.90
17565;DHT22;62994;52.126;5.596;2023-12-07T13:11:09;3.20;99.90
17565;DHT22;62994;52.126;5.596;2023-12-07T13:13:36;3.20;99.90
17565;DHT22;62994;52.126;5.596;2023-12-07T13:16:04;3.20;99.90
17565;DHT22;62994;52.126;5.596;2023-12-07T13:18:32;3.20;99.90
17565;DHT22;62994;52.126;5.596;2023-12-07T13:20:59;3.10;99.90
17565;DHT22;62994;52.126;5.596;2023-12-07T13:23:27;3.10;99.90
17565;DHT22;62994;52.126;5.596;2023-12-07T13:25:55;3.20;99.90
17565;DHT22;62994;52.126;5.596;2023-12-07T13:28:22;3.10;99.90
17565;DHT22;62994;52.126;5.596;2023-12-07T13:30:49;3.20;99.90
17565;DHT22;62994;52.126;5.596;2023-12-07T13:33:17;3.20;99.90
17565;DHT22;62994;52.126;5.596;2023-12-07T13:35:44;3.20;99.90
17565;DHT22;62994;52.126;5.596;2023-12-07T13:38:11;3.20;99.90
17565;DHT22;62994;52.126;5.596;2023-12-07T13:40:38;3.10;99.90
17565;DHT22;62994;52.126;5.596;2023-12-07T13:43:07;3.10;99.90
17565;DHT22;62994;52.126;5.596;2023-12-07T13:45:34;3.20;99.90
17565;DHT22;62994;52.126;5.596;2023-12-07T13:48:01;3.20;99.90
17565;DHT22;62994;52.126;5.596;2023-12-07T13:50:28;3.20;99.90
17565;DHT22;62994;52.126;5.596;2023-12-07T13:52:56;3.10;99.90
17565;DHT22;62994;52.126;5.596;2023-12-07T13:55:23;3.20;99.90
17565;DHT22;62994;52.126;5.596;2023-12-07T13:57:50;3.20;99.90
17565;DHT22;62994;52.126;5.596;2023-12-07T14:00:21;3.20;99.90
17565;DHT22;62994;52.126;5.596;2023-12-07T14:02:48;3.10;99.90
17565;DHT22;62994;52.126;5.596;2023-12-07T14:05:15;3.10;99.90
17565;DHT22;62994;52.126;5.596;2023-12-07T14:07:44;3.10;99.90
17565;DHT22;62994;52.126;5.596;2023-12-07T14:10:11;3.10;99.90
17565;DHT22;62994;52.126;5.596;2023-12-07T14:12:38;3.10;99.90
17565;DHT22;62994;52.126;5.596;2023-12-07T14:15:06;3.10;99.90
17565;DHT22;62994;52.126;5.596;2023-12-07T14:17:36;3.10;99.90
17565;DHT22;62994;52.126;5.596;2023-12-07T14:20:04;3.10;99.90
17565;DHT22;62994;52.126;5.596;2023-12-07T14:22:32;3.10;99.90
17565;DHT22;62994;52.126;5.596;2023-12-07T14:25:00;3.00;99.90
17565;DHT22;62994;52.126;5.596;2023-12-07T14:27:29;3.00;99.90
17565;DHT22;62994;52.126;5.596;2023-12-07T14:29:56;3.00;99.90
17565;DHT22;62994;52.126;5.596;2023-12-07T14:32:23;2.90;99.90
17565;DHT22;62994;52.126;5.596;2023-12-07T14:34:52;3.00;99.90
17565;DHT22;62994;52.126;5.596;2023-12-07T14:37:20;3.00;99.90
17565;DHT22;62994;52.126;5.596;2023-12-07T14:39:47;3.00;99.90
17565;DHT22;62994;52.126;5.596;2023-12-07T14:42:14;3.00;99.90
17565;DHT22;62994;52.126;5.596;2023-12-07T14:44:42;3.00;99.90
17565;DHT22;62994;52.126;5.596;2023-12-07T14:47:09;3.10;99.90
17565;DHT22;62994;52.126;5.596;2023-12-07T14:49:36;3.10;99.90
17565;DHT22;62994;52.126;5.596;2023-12-07T14:52:05;3.00;99.90
17565;DHT22;62994;52.126;5.596;2023-12-07T14:54:32;3.00;99.90
17565;DHT22;62994;52.126;5.596;2023-12-07T14:56:59;3.00;99.90
17565;DHT22;62994;52.126;5.596;2023-12-07T14:59:28;3.00;99.90
17565;DHT22;62994;52.126;5.596;2023-12-07T15:01:55;3.00;99.90
17565;DHT22;62994;52.126;5.596;2023-12-07T15:04:22;3.10;99.90
17565;DHT22;62994;52.126;5.596;2023-12-07T15:06:49;3.10;99.90
17565;DHT22;62994;52.126;5.596;2023-12-07T15:09:18;3.10;99.90
17565;DHT22;62994;52.126;5.596;2023-12-07T15:11:45;3.00;99.90
17565;DHT22;62994;52.126;5.596;2023-12-07T15:14:12;3.00;99.90
17565;DHT22;62994;52.126;5.596;2023-12-07T15:16:39;3.00;99.90
17565;DHT22;62994;52.126;5.596;2023-12-07T15:19:06;3.00;99.90
17565;DHT22;62994;52.126;5.596;2023-12-07T15:21:33;3.00;99.90
17565;DHT22;62994;52.126;5.596;2023-12-07T15:24:00;2.90;99.90
17565;DHT22;62994;52.126;5.596;2023-12-07T15:26:30;3.00;99.90
17565;DHT22;62994;52.126;5.596;2023-12-07T15:28:57;2.90;99.90
17565;DHT22;62994;52.126;5.596;2023-12-07T15:31:24;2.90;99.90
17565;DHT22;62994;52.126;5.596;2023-12-07T15:33:51;2.90;99.90
17565;DHT22;62994;52.126;5.596;2023-12-07T15:36:19;2.90;99.90
17565;DHT22;62994;52.126;5.596;2023-12-07T15:38:46;2.90;99.90
17565;DHT22;62994;52.126;5.596;2023-12-07T15:41:13;3.10;99.90
17565;DHT22;62994;52.126;5.596;2023-12-07T15:43:41;3.10;99.90
17565;DHT22;62994;52.126;5.596;2023-12-07T15:46:09;3.10;99.90
17565;DHT22;62994;52.126;5.596;2023-12-07T15:48:36;3.00;99.90
17565;DHT22;62994;52.126;5.596;2023-12-07T15:51:03;3.00;99.90
17565;DHT22;62994;52.126;5.596;2023-12-07T15:53:30;3.00;99.90
17565;DHT22;62994;52.126;5.596;2023-12-07T15:55:57;3.00;99.90